Bookmark and Share
Track history (hours):
 

Fortune Amaryllis

Last reported at 2014-Apr-11 17:31 UTC. Time now 2014-Apr-24 19:55 UTC.
Position S 38°16' E 140°35'.
Warning: this ship's position is 13 days out of date.

Length 175 m; draft 7 m.

Type: Cargo ship. MMSI: 477046800.

NotesDate/timePositionNaut miles runAvg speedWind from/ knotsBaromVisibWave heightAir tempDewpointWater temp
2014-Apr-11 17:31S 38°16' E 140°35'1112.0
2014-Apr-11 16:33S 38°22' E 140°48'1211.8
2014-Apr-11 15:34S 38°27' E 141°01'1211.7
2014-Apr-11 14:33S 38°33' E 141°14'1211.9
2014-Apr-11 13:32S 38°39' E 141°28'1211.7
2014-Apr-11 12:32S 38°42' E 141°42'1111.6
2014-Apr-11 11:33S 38°45' E 141°56'1211.3
2014-Apr-11 10:32S 38°48' E 142°10'1111.3
2014-Apr-11 09:32S 38°51' E 142°24'17711.1
2014-Apr-10 17:34S 39°13' E 146°10'2511.5
2014-Apr-10 15:24S 39°08' E 146°42'1011.3
2014-Apr-10 14:32S 39°05' E 146°54'7411.6
2014-Apr-10 08:09S 38°38' E 148°23'812.3
2014-Apr-10 07:32S 38°36' E 148°32'1111.8
2014-Apr-10 06:34S 38°33' E 148°46'5111.3
2014-Apr-10 02:05S 38°03' E 149°38'712.8
2014-Apr-10 01:33S 37°58' E 149°44'1212.6
2014-Apr-10 00:33S 37°50' E 149°56'1312.6
2014-Apr-09 23:32S 37°41' E 150°08'1212.0
2014-Apr-09 22:33S 37°31' E 150°16'1312.7
2014-Apr-09 21:32S 37°20' E 150°23'  
2014-Apr-03 03:04S 26°13' E 154°10'6511.7
2014-Apr-02 21:27S 27°18' E 154°20'1412.1
2014-Apr-02 20:17S 27°32' E 154°22'  

Dump ship's entire track history

sailing weather and tide predictions

Fortune Amaryllis — VRDT3 — position and weather